Steve Richoux — WDC2820 — position and weather

sailwx.info

Track history (hours):
 
Tides and Currents Weather Stations Pressure Air Temp Water Temp Dewpoint Dewpoint Depression Visibility Wind Speed Wind Dir Waves Ship Positions

Steve Richoux

Owner: Marquette Transportation Company Gulf-Inland, LLC, Jefferson, LA. More information available from US FCC via Universal Licensing System and Coast Guard Vessel Documentation Center.

Last reported at 2017-Oct-02 14:31 UTC. Time now 2017-Nov-22 01:51 UTC.
Position N 29°30' W 094°52'.
Warning: this ship's position is 50 days out of date.

Length 21 m; draft 3.4 m.

Type: Tow > 200 m length. MMSI: 366998110.

Date/timePositionNaut miles runAvg speedWind from/ knotsBaromVisibWave heightAir tempDewpointWater temp
2017-Oct-02 14:31N 29°30' W 094°52'1 4.9
2017-Oct-02 14:18N 29°31' W 094°53'1 4.9
2017-Oct-02 14:00N 29°32' W 094°54'2 4.7
2017-Oct-02 13:29N 29°34' W 094°55'2 4.8
2017-Oct-02 12:58N 29°36' W 094°57'2 4.5
2017-Oct-02 12:30N 29°38' W 094°58'2 4.7
2017-Oct-02 12:00N 29°40' W 094°59'2 3.8
2017-Oct-02 11:30N 29°42' W 094°60'2 3.5
2017-Oct-02 11:00N 29°43' W 095°01'2 3.7
2017-Oct-02 10:30N 29°44' W 095°03'3 3.6
2017-Oct-02 09:43N 29°46' W 095°05'1 2.1
2017-Oct-02 09:07N 29°47' W 095°04'0 0.0
2017-Oct-02 08:59N 29°47' W 095°04'5 0.8
2017-Oct-02 03:08N 29°44' W 095°08'1 5.2
2017-Oct-02 03:00N 29°44' W 095°09'2 1.5
2017-Oct-02 01:51N 29°45' W 095°10'0 0.2
2017-Oct-02 01:30N 29°45' W 095°10'2 3.2
2017-Oct-02 01:00N 29°44' W 095°09'3 6.4
2017-Oct-02 00:28N 29°46' W 095°05'0 0.1
2017-Oct-01 22:41N 29°46' W 095°06'1 4.4
2017-Oct-01 22:30N 29°46' W 095°05'2 0.5
2017-Oct-01 17:56N 29°44' W 095°04'2 5.0
2017-Oct-01 17:29N 29°43' W 095°01'1 2.1
2017-Oct-01 16:58N 29°42' W 095°01'3 5.5
2017-Oct-01 16:26N 29°40' W 094°59'4 6.1
2017-Oct-01 15:51N 29°37' W 094°57'2 6.2
2017-Oct-01 15:30N 29°35' W 094°56'3 6.4
2017-Oct-01 15:00N 29°32' W 094°54'134 3.0
2017-Sep-29 18:26N 29°51' W 092°21'2 3.5
2017-Sep-29 17:52N 29°50' W 092°19'1 3.4
2017-Sep-29 17:30N 29°49' W 092°18'2 3.1
2017-Sep-29 17:00N 29°49' W 092°16'2 4.0
2017-Sep-29 16:30N 29°48' W 092°14'2 3.2
2017-Sep-29 16:00N 29°47' W 092°12'1 2.4
2017-Sep-29 15:30N 29°47' W 092°11'0 0.0
2017-Sep-29 15:00N 29°47' W 092°11'0 0.1
2017-Sep-29 14:30N 29°47' W 092°11'0 0.1
2017-Sep-29 14:00N 29°47' W 092°11'0 0.4
2017-Sep-29 13:30N 29°47' W 092°11'2 3.4
2017-Sep-29 13:00N 29°47' W 092°09'2 3.6
2017-Sep-29 12:30N 29°48' W 092°07'2 4.0
2017-Sep-29 12:00N 29°48' W 092°05'2 4.0
2017-Sep-29 11:30N 29°49' W 092°03'2 4.1
2017-Sep-29 11:00N 29°50' W 092°00'2 4.2
2017-Sep-29 10:27N 29°50' W 091°58'55 3.5
2017-Sep-28 18:43N 29°34' W 090°57'1 4.6
2017-Sep-28 18:30N 29°34' W 090°56'3 4.6
2017-Sep-28 17:53N 29°32' W 090°53'2 4.5
2017-Sep-28 17:30N 29°32' W 090°51'2 4.8
2017-Sep-28 17:00N 29°32' W 090°48'2 4.5
2017-Sep-28 16:30N 29°32' W 090°46'2 3.7
2017-Sep-28 16:00N 29°34' W 090°44'2 3.1
2017-Sep-28 15:30N 29°35' W 090°43'2 3.1
2017-Sep-28 15:00N 29°36' W 090°43'1 2.2
2017-Sep-28 14:30N 29°37' W 090°41'1 2.4
2017-Sep-28 14:00N 29°36' W 090°40'0 0.4
2017-Sep-28 13:30N 29°36' W 090°40'0 0.4
2017-Sep-28 13:00N 29°36' W 090°40'0 0.0
2017-Sep-28 12:30N 29°36' W 090°40'0 0.0
2017-Sep-28 12:00N 29°36' W 090°40'0 0.0
2017-Sep-28 11:30N 29°36' W 090°40'0 0.0
2017-Sep-28 11:00N 29°36' W 090°40'0 0.0
2017-Sep-28 10:30N 29°36' W 090°40'0 0.0
2017-Sep-28 10:00N 29°36' W 090°40'0 0.2
2017-Sep-28 09:30N 29°36' W 090°40'1 2.8
2017-Sep-28 09:00N 29°35' W 090°39'0 0.6
2017-Sep-28 08:30N 29°35' W 090°38'1 2.8
2017-Sep-28 08:00N 29°35' W 090°37'1 3.0
2017-Sep-28 07:30N 29°35' W 090°35'2 3.0
2017-Sep-28 07:00N 29°34' W 090°34'2 3.1
2017-Sep-28 06:30N 29°34' W 090°32'2 3.4
2017-Sep-28 06:00N 29°34' W 090°30'2 3.6
2017-Sep-28 05:30N 29°33' W 090°28'2 3.6
2017-Sep-28 05:00N 29°33' W 090°26'4 2.4
2017-Sep-28 03:22N 29°36' W 090°22'  
Track history (hours):
 
Tides and Currents Weather Stations Pressure Air Temp Water Temp Dewpoint Dewpoint Depression Visibility Wind Speed Wind Dir Waves Ship Positions

Steve Richoux

Owner: Marquette Transportation Company Gulf-Inland, LLC, Jefferson, LA. More information available from US FCC via Universal Licensing System and Coast Guard Vessel Documentation Center.

Last reported at 2017-Oct-02 14:31 UTC. Time now 2017-Nov-22 01:51 UTC.
Position N 29°30' W 094°52'.
Warning: this ship's position is 50 days out of date.

Length 21 m; draft 3.4 m.

Type: Tow > 200 m length. MMSI: 366998110.

Date/timePositionNaut miles runAvg speedWind from/ knotsBaromVisibWave heightAir tempDewpointWater temp
2017-Oct-02 14:31N 29°30' W 094°52'1 4.9
2017-Oct-02 14:18N 29°31' W 094°53'1 4.9
2017-Oct-02 14:00N 29°32' W 094°54'2 4.7
2017-Oct-02 13:29N 29°34' W 094°55'2 4.8
2017-Oct-02 12:58N 29°36' W 094°57'2 4.5
2017-Oct-02 12:30N 29°38' W 094°58'2 4.7
2017-Oct-02 12:00N 29°40' W 094°59'2 3.8
2017-Oct-02 11:30N 29°42' W 094°60'2 3.5
2017-Oct-02 11:00N 29°43' W 095°01'2 3.7
2017-Oct-02 10:30N 29°44' W 095°03'3 3.6
2017-Oct-02 09:43N 29°46' W 095°05'1 2.1
2017-Oct-02 09:07N 29°47' W 095°04'0 0.0
2017-Oct-02 08:59N 29°47' W 095°04'5 0.8
2017-Oct-02 03:08N 29°44' W 095°08'1 5.2
2017-Oct-02 03:00N 29°44' W 095°09'2 1.5
2017-Oct-02 01:51N 29°45' W 095°10'0 0.2
2017-Oct-02 01:30N 29°45' W 095°10'2 3.2
2017-Oct-02 01:00N 29°44' W 095°09'3 6.4
2017-Oct-02 00:28N 29°46' W 095°05'0 0.1
2017-Oct-01 22:41N 29°46' W 095°06'1 4.4
2017-Oct-01 22:30N 29°46' W 095°05'2 0.5
2017-Oct-01 17:56N 29°44' W 095°04'2 5.0
2017-Oct-01 17:29N 29°43' W 095°01'1 2.1
2017-Oct-01 16:58N 29°42' W 095°01'3 5.5
2017-Oct-01 16:26N 29°40' W 094°59'4 6.1
2017-Oct-01 15:51N 29°37' W 094°57'2 6.2
2017-Oct-01 15:30N 29°35' W 094°56'3 6.4
2017-Oct-01 15:00N 29°32' W 094°54'134 3.0
2017-Sep-29 18:26N 29°51' W 092°21'2 3.5
2017-Sep-29 17:52N 29°50' W 092°19'1 3.4
2017-Sep-29 17:30N 29°49' W 092°18'2 3.1
2017-Sep-29 17:00N 29°49' W 092°16'2 4.0
2017-Sep-29 16:30N 29°48' W 092°14'2 3.2
2017-Sep-29 16:00N 29°47' W 092°12'1 2.4
2017-Sep-29 15:30N 29°47' W 092°11'0 0.0
2017-Sep-29 15:00N 29°47' W 092°11'0 0.1
2017-Sep-29 14:30N 29°47' W 092°11'0 0.1
2017-Sep-29 14:00N 29°47' W 092°11'0 0.4
2017-Sep-29 13:30N 29°47' W 092°11'2 3.4
2017-Sep-29 13:00N 29°47' W 092°09'2 3.6
2017-Sep-29 12:30N 29°48' W 092°07'2 4.0
2017-Sep-29 12:00N 29°48' W 092°05'2 4.0
2017-Sep-29 11:30N 29°49' W 092°03'2 4.1
2017-Sep-29 11:00N 29°50' W 092°00'2 4.2
2017-Sep-29 10:27N 29°50' W 091°58'55 3.5
2017-Sep-28 18:43N 29°34' W 090°57'1 4.6
2017-Sep-28 18:30N 29°34' W 090°56'3 4.6
2017-Sep-28 17:53N 29°32' W 090°53'2 4.5
2017-Sep-28 17:30N 29°32' W 090°51'2 4.8
2017-Sep-28 17:00N 29°32' W 090°48'2 4.5
2017-Sep-28 16:30N 29°32' W 090°46'2 3.7
2017-Sep-28 16:00N 29°34' W 090°44'2 3.1
2017-Sep-28 15:30N 29°35' W 090°43'2 3.1
2017-Sep-28 15:00N 29°36' W 090°43'1 2.2
2017-Sep-28 14:30N 29°37' W 090°41'1 2.4
2017-Sep-28 14:00N 29°36' W 090°40'0 0.4
2017-Sep-28 13:30N 29°36' W 090°40'0 0.4
2017-Sep-28 13:00N 29°36' W 090°40'0 0.0
2017-Sep-28 12:30N 29°36' W 090°40'0 0.0
2017-Sep-28 12:00N 29°36' W 090°40'0 0.0
2017-Sep-28 11:30N 29°36' W 090°40'0 0.0
2017-Sep-28 11:00N 29°36' W 090°40'0 0.0
2017-Sep-28 10:30N 29°36' W 090°40'0 0.0
2017-Sep-28 10:00N 29°36' W 090°40'0 0.2
2017-Sep-28 09:30N 29°36' W 090°40'1 2.8
2017-Sep-28 09:00N 29°35' W 090°39'0 0.6
2017-Sep-28 08:30N 29°35' W 090°38'1 2.8
2017-Sep-28 08:00N 29°35' W 090°37'1 3.0
2017-Sep-28 07:30N 29°35' W 090°35'2 3.0
2017-Sep-28 07:00N 29°34' W 090°34'2 3.1
2017-Sep-28 06:30N 29°34' W 090°32'2 3.4
2017-Sep-28 06:00N 29°34' W 090°30'2 3.6
2017-Sep-28 05:30N 29°33' W 090°28'2 3.6
2017-Sep-28 05:00N 29°33' W 090°26'4 2.4
2017-Sep-28 03:22N 29°36' W 090°22'  

Dump ship's entire track history